sensor_id;sensor_type;location;lat;lon;timestamp;P1;durP1;ratioP1;P2;durP2;ratioP2
20828;SDS011;10575;50.124;8.582;2023-03-23T00:02:19;3.42;;;1.13;;
20828;SDS011;10575;50.124;8.582;2023-03-23T00:04:52;1.75;;;0.95;;
20828;SDS011;10575;50.124;8.582;2023-03-23T00:07:18;1.55;;;1.10;;
20828;SDS011;10575;50.124;8.582;2023-03-23T00:09:48;1.98;;;1.20;;
20828;SDS011;10575;50.124;8.582;2023-03-23T00:12:19;5.40;;;1.30;;
20828;SDS011;10575;50.124;8.582;2023-03-23T00:14:46;1.58;;;1.20;;
20828;SDS011;10575;50.124;8.582;2023-03-23T00:17:12;2.55;;;1.23;;
20828;SDS011;10575;50.124;8.582;2023-03-23T00:19:39;2.92;;;1.20;;
20828;SDS011;10575;50.124;8.582;2023-03-23T00:22:14;1.58;;;1.20;;
20828;SDS011;10575;50.124;8.582;2023-03-23T00:24:41;2.20;;;1.00;;
20828;SDS011;10575;50.124;8.582;2023-03-23T00:27:08;1.77;;;1.35;;
20828;SDS011;10575;50.124;8.582;2023-03-23T00:29:34;3.58;;;1.40;;
20828;SDS011;10575;50.124;8.582;2023-03-23T00:31:59;6.88;;;1.52;;
20828;SDS011;10575;50.124;8.582;2023-03-23T00:34:26;1.65;;;1.20;;
20828;SDS011;10575;50.124;8.582;2023-03-23T00:36:57;1.40;;;1.10;;
20828;SDS011;10575;50.124;8.582;2023-03-23T00:39:24;1.52;;;1.23;;
20828;SDS011;10575;50.124;8.582;2023-03-23T00:41:51;2.17;;;1.20;;
20828;SDS011;10575;50.124;8.582;2023-03-23T00:44:18;1.23;;;1.10;;
20828;SDS011;10575;50.124;8.582;2023-03-23T00:46:44;2.25;;;1.10;;
20828;SDS011;10575;50.124;8.582;2023-03-23T00:49:15;2.25;;;1.15;;
20828;SDS011;10575;50.124;8.582;2023-03-23T00:51:42;2.55;;;1.13;;
20828;SDS011;10575;50.124;8.582;2023-03-23T00:54:08;5.22;;;1.58;;
20828;SDS011;10575;50.124;8.582;2023-03-23T00:56:35;3.28;;;1.60;;
20828;SDS011;10575;50.124;8.582;2023-03-23T00:59:00;4.75;;;1.33;;
20828;SDS011;10575;50.124;8.582;2023-03-23T01:01:26;2.42;;;1.40;;
20828;SDS011;10575;50.124;8.582;2023-03-23T01:03:52;2.92;;;1.48;;
20828;SDS011;10575;50.124;8.582;2023-03-23T01:06:25;2.83;;;1.30;;
20828;SDS011;10575;50.124;8.582;2023-03-23T01:08:56;1.65;;;1.10;;
20828;SDS011;10575;50.124;8.582;2023-03-23T01:11:23;4.00;;;1.13;;
20828;SDS011;10575;50.124;8.582;2023-03-23T01:13:49;3.72;;;1.13;;
20828;SDS011;10575;50.124;8.582;2023-03-23T01:16:16;1.85;;;1.33;;
20828;SDS011;10575;50.124;8.582;2023-03-23T01:18:41;3.90;;;1.60;;
20828;SDS011;10575;50.124;8.582;2023-03-23T01:21:08;1.88;;;1.05;;
20828;SDS011;10575;50.124;8.582;2023-03-23T01:23:40;2.15;;;1.30;;
20828;SDS011;10575;50.124;8.582;2023-03-23T01:26:07;1.10;;;0.98;;
20828;SDS011;10575;50.124;8.582;2023-03-23T01:28:35;1.73;;;0.98;;
20828;SDS011;10575;50.124;8.582;2023-03-23T01:31:05;2.80;;;1.10;;
20828;SDS011;10575;50.124;8.582;2023-03-23T01:33:33;1.55;;;1.17;;
20828;SDS011;10575;50.124;8.582;2023-03-23T01:36:02;1.83;;;1.10;;
20828;SDS011;10575;50.124;8.582;2023-03-23T01:38:29;2.38;;;1.30;;
20828;SDS011;10575;50.124;8.582;2023-03-23T01:40:56;1.67;;;0.90;;
20828;SDS011;10575;50.124;8.582;2023-03-23T01:43:21;1.30;;;1.00;;
20828;SDS011;10575;50.124;8.582;2023-03-23T01:45:47;1.70;;;1.13;;
20828;SDS011;10575;50.124;8.582;2023-03-23T01:48:14;4.40;;;1.13;;
20828;SDS011;10575;50.124;8.582;2023-03-23T01:50:47;1.38;;;1.13;;
20828;SDS011;10575;50.124;8.582;2023-03-23T01:53:19;2.65;;;1.00;;
20828;SDS011;10575;50.124;8.582;2023-03-23T01:55:46;2.40;;;1.27;;
20828;SDS011;10575;50.124;8.582;2023-03-23T01:58:16;2.75;;;1.55;;
20828;SDS011;10575;50.124;8.582;2023-03-23T02:00:44;2.28;;;1.42;;
20828;SDS011;10575;50.124;8.582;2023-03-23T02:03:11;1.50;;;1.10;;
20828;SDS011;10575;50.124;8.582;2023-03-23T02:05:40;5.90;;;1.38;;
20828;SDS011;10575;50.124;8.582;2023-03-23T02:08:06;4.30;;;1.38;;
20828;SDS011;10575;50.124;8.582;2023-03-23T02:10:34;3.17;;;1.25;;
20828;SDS011;10575;50.124;8.582;2023-03-23T02:13:02;1.92;;;1.35;;
20828;SDS011;10575;50.124;8.582;2023-03-23T02:15:36;1.80;;;1.10;;
20828;SDS011;10575;50.124;8.582;2023-03-23T02:21:13;1.95;;;1.10;;
20828;SDS011;10575;50.124;8.582;2023-03-23T02:24:10;2.40;;;1.33;;
20828;SDS011;10575;50.124;8.582;2023-03-23T02:34:48;2.78;;;1.58;;
20828;SDS011;10575;50.124;8.582;2023-03-23T02:37:40;1.83;;;1.25;;
20828;SDS011;10575;50.124;8.582;2023-03-23T02:40:16;1.83;;;1.27;;
20828;SDS011;10575;50.124;8.582;2023-03-23T02:42:48;3.08;;;1.40;;
20828;SDS011;10575;50.124;8.582;2023-03-23T02:45:17;2.15;;;1.52;;
20828;SDS011;10575;50.124;8.582;2023-03-23T02:47:45;3.50;;;1.27;;
20828;SDS011;10575;50.124;8.582;2023-03-23T02:50:15;3.67;;;1.40;;
20828;SDS011;10575;50.124;8.582;2023-03-23T02:52:44;4.10;;;1.45;;
20828;SDS011;10575;50.124;8.582;2023-03-23T02:55:10;2.33;;;1.45;;
20828;SDS011;10575;50.124;8.582;2023-03-23T02:57:39;2.67;;;1.65;;
20828;SDS011;10575;50.124;8.582;2023-03-23T03:00:05;3.70;;;1.33;;
20828;SDS011;10575;50.124;8.582;2023-03-23T03:02:39;2.90;;;1.50;;
20828;SDS011;10575;50.124;8.582;2023-03-23T03:13:26;2.00;;;1.50;;
20828;SDS011;10575;50.124;8.582;2023-03-23T03:18:55;2.35;;;1.35;;
20828;SDS011;10575;50.124;8.582;2023-03-23T03:21:28;1.83;;;1.42;;
20828;SDS011;10575;50.124;8.582;2023-03-23T03:23:58;2.17;;;1.40;;
20828;SDS011;10575;50.124;8.582;2023-03-23T03:26:26;3.17;;;1.42;;
20828;SDS011;10575;50.124;8.582;2023-03-23T03:28:54;2.22;;;1.50;;
20828;SDS011;10575;50.124;8.582;2023-03-23T03:31:22;1.88;;;1.48;;
20828;SDS011;10575;50.124;8.582;2023-03-23T03:33:52;2.58;;;1.65;;
20828;SDS011;10575;50.124;8.582;2023-03-23T03:36:19;1.70;;;1.20;;
20828;SDS011;10575;50.124;8.582;2023-03-23T03:38:49;2.22;;;1.40;;
20828;SDS011;10575;50.124;8.582;2023-03-23T03:41:16;3.03;;;1.63;;
20828;SDS011;10575;50.124;8.582;2023-03-23T03:43:43;2.25;;;1.60;;
20828;SDS011;10575;50.124;8.582;2023-03-23T03:46:09;2.80;;;1.42;;
20828;SDS011;10575;50.124;8.582;2023-03-23T03:48:35;2.00;;;1.58;;
20828;SDS011;10575;50.124;8.582;2023-03-23T03:51:00;2.47;;;1.42;;
20828;SDS011;10575;50.124;8.582;2023-03-23T03:53:27;2.15;;;1.40;;
20828;SDS011;10575;50.124;8.582;2023-03-23T03:55:53;1.92;;;1.42;;
20828;SDS011;10575;50.124;8.582;2023-03-23T03:58:24;2.03;;;1.60;;
20828;SDS011;10575;50.124;8.582;2023-03-23T04:00:56;2.47;;;1.40;;
20828;SDS011;10575;50.124;8.582;2023-03-23T04:03:24;3.25;;;1.50;;
20828;SDS011;10575;50.124;8.582;2023-03-23T04:05:51;4.93;;;1.67;;
20828;SDS011;10575;50.124;8.582;2023-03-23T04:08:19;4.50;;;1.40;;
20828;SDS011;10575;50.124;8.582;2023-03-23T04:10:48;5.85;;;1.83;;
20828;SDS011;10575;50.124;8.582;2023-03-23T04:13:14;1.92;;;1.30;;
20828;SDS011;10575;50.124;8.582;2023-03-23T04:15:40;4.20;;;1.60;;
20828;SDS011;10575;50.124;8.582;2023-03-23T04:18:06;3.65;;;1.90;;
20828;SDS011;10575;50.124;8.582;2023-03-23T04:20:32;3.65;;;1.38;;
20828;SDS011;10575;50.124;8.582;2023-03-23T04:22:59;4.28;;;1.75;;
20828;SDS011;10575;50.124;8.582;2023-03-23T04:25:26;5.70;;;1.70;;
20828;SDS011;10575;50.124;8.582;2023-03-23T04:27:52;5.70;;;2.42;;
20828;SDS011;10575;50.124;8.582;2023-03-23T04:30:19;3.38;;;1.80;;
20828;SDS011;10575;50.124;8.582;2023-03-23T04:32:47;3.70;;;2.08;;
20828;SDS011;10575;50.124;8.582;2023-03-23T04:35:20;4.13;;;2.00;;
20828;SDS011;10575;50.124;8.582;2023-03-23T04:37:48;2.60;;;1.60;;
20828;SDS011;10575;50.124;8.582;2023-03-23T04:40:14;3.47;;;2.20;;
20828;SDS011;10575;50.124;8.582;2023-03-23T04:42:41;3.55;;;1.90;;
20828;SDS011;10575;50.124;8.582;2023-03-23T04:45:11;3.38;;;1.73;;
20828;SDS011;10575;50.124;8.582;2023-03-23T04:47:40;3.58;;;1.80;;
20828;SDS011;10575;50.124;8.582;2023-03-23T04:50:10;3.78;;;1.90;;
20828;SDS011;10575;50.124;8.582;2023-03-23T04:52:37;4.38;;;1.90;;
20828;SDS011;10575;50.124;8.582;2023-03-23T04:55:05;3.38;;;1.70;;
20828;SDS011;10575;50.124;8.582;2023-03-23T04:57:32;2.65;;;1.90;;
20828;SDS011;10575;50.124;8.582;2023-03-23T04:59:58;3.00;;;2.03;;
20828;SDS011;10575;50.124;8.582;2023-03-23T05:02:24;3.03;;;1.90;;
20828;SDS011;10575;50.124;8.582;2023-03-23T05:04:50;3.53;;;1.90;;
20828;SDS011;10575;50.124;8.582;2023-03-23T05:07:15;4.00;;;1.77;;
20828;SDS011;10575;50.124;8.582;2023-03-23T05:09:41;4.57;;;2.05;;
20828;SDS011;10575;50.124;8.582;2023-03-23T05:12:11;2.33;;;1.80;;
20828;SDS011;10575;50.124;8.582;2023-03-23T05:14:39;2.75;;;1.83;;
20828;SDS011;10575;50.124;8.582;2023-03-23T05:17:06;3.80;;;1.88;;
20828;SDS011;10575;50.124;8.582;2023-03-23T05:19:32;2.58;;;1.90;;
20828;SDS011;10575;50.124;8.582;2023-03-23T05:21:58;4.07;;;2.00;;
20828;SDS011;10575;50.124;8.582;2023-03-23T05:24:29;4.30;;;1.80;;
20828;SDS011;10575;50.124;8.582;2023-03-23T05:26:57;4.78;;;2.03;;
20828;SDS011;10575;50.124;8.582;2023-03-23T05:29:26;3.13;;;2.20;;
20828;SDS011;10575;50.124;8.582;2023-03-23T05:31:54;4.68;;;2.20;;
20828;SDS011;10575;50.124;8.582;2023-03-23T05:34:21;4.10;;;2.03;;
20828;SDS011;10575;50.124;8.582;2023-03-23T05:36:46;3.08;;;2.17;;
20828;SDS011;10575;50.124;8.582;2023-03-23T05:39:12;3.42;;;2.20;;
20828;SDS011;10575;50.124;8.582;2023-03-23T05:41:38;2.50;;;1.63;;
20828;SDS011;10575;50.124;8.582;2023-03-23T05:44:04;3.47;;;2.40;;
20828;SDS011;10575;50.124;8.582;2023-03-23T05:46:29;3.53;;;2.33;;
20828;SDS011;10575;50.124;8.582;2023-03-23T05:48:55;3.10;;;2.08;;
20828;SDS011;10575;50.124;8.582;2023-03-23T05:51:21;4.93;;;2.28;;
20828;SDS011;10575;50.124;8.582;2023-03-23T05:53:46;7.13;;;2.25;;
20828;SDS011;10575;50.124;8.582;2023-03-23T05:56:13;5.13;;;2.30;;
20828;SDS011;10575;50.124;8.582;2023-03-23T05:58:39;3.47;;;1.95;;
20828;SDS011;10575;50.124;8.582;2023-03-23T06:01:08;2.65;;;1.83;;
20828;SDS011;10575;50.124;8.582;2023-03-23T06:03:34;4.53;;;1.88;;
20828;SDS011;10575;50.124;8.582;2023-03-23T06:06:02;3.10;;;1.98;;
20828;SDS011;10575;50.124;8.582;2023-03-23T06:08:28;3.50;;;1.98;;
20828;SDS011;10575;50.124;8.582;2023-03-23T06:10:55;3.13;;;2.10;;
20828;SDS011;10575;50.124;8.582;2023-03-23T06:13:21;2.80;;;1.90;;
20828;SDS011;10575;50.124;8.582;2023-03-23T06:15:48;4.30;;;2.10;;
20828;SDS011;10575;50.124;8.582;2023-03-23T06:18:14;3.85;;;1.92;;
20828;SDS011;10575;50.124;8.582;2023-03-23T06:20:40;4.65;;;1.95;;
20828;SDS011;10575;50.124;8.582;2023-03-23T06:23:08;2.20;;;2.00;;
20828;SDS011;10575;50.124;8.582;2023-03-23T06:25:34;2.55;;;1.90;;
20828;SDS011;10575;50.124;8.582;2023-03-23T06:27:59;4.28;;;2.00;;
20828;SDS011;10575;50.124;8.582;2023-03-23T06:30:25;3.60;;;1.90;;
20828;SDS011;10575;50.124;8.582;2023-03-23T06:32:51;8.50;;;2.15;;
20828;SDS011;10575;50.124;8.582;2023-03-23T06:35:18;7.75;;;2.25;;
20828;SDS011;10575;50.124;8.582;2023-03-23T06:37:43;2.85;;;1.98;;
20828;SDS011;10575;50.124;8.582;2023-03-23T06:40:09;3.45;;;2.20;;
20828;SDS011;10575;50.124;8.582;2023-03-23T06:42:35;5.07;;;2.30;;
20828;SDS011;10575;50.124;8.582;2023-03-23T06:45:02;4.28;;;2.17;;
20828;SDS011;10575;50.124;8.582;2023-03-23T06:47:29;3.25;;;2.28;;
20828;SDS011;10575;50.124;8.582;2023-03-23T06:49:54;5.82;;;2.70;;
20828;SDS011;10575;50.124;8.582;2023-03-23T06:52:21;2.80;;;2.20;;
20828;SDS011;10575;50.124;8.582;2023-03-23T06:54:47;4.05;;;2.40;;
20828;SDS011;10575;50.124;8.582;2023-03-23T06:57:14;3.00;;;2.00;;
20828;SDS011;10575;50.124;8.582;2023-03-23T06:59:40;2.33;;;2.00;;
20828;SDS011;10575;50.124;8.582;2023-03-23T07:02:07;3.53;;;2.25;;
20828;SDS011;10575;50.124;8.582;2023-03-23T07:04:37;3.45;;;2.38;;
20828;SDS011;10575;50.124;8.582;2023-03-23T07:07:04;3.45;;;2.58;;
20828;SDS011;10575;50.124;8.582;2023-03-23T07:09:31;4.22;;;2.17;;
20828;SDS011;10575;50.124;8.582;2023-03-23T07:11:57;4.43;;;2.30;;
20828;SDS011;10575;50.124;8.582;2023-03-23T07:14:22;3.40;;;2.35;;
20828;SDS011;10575;50.124;8.582;2023-03-23T07:16:48;3.88;;;2.47;;
20828;SDS011;10575;50.124;8.582;2023-03-23T07:19:14;2.80;;;2.15;;
20828;SDS011;10575;50.124;8.582;2023-03-23T07:21:39;4.05;;;2.53;;
20828;SDS011;10575;50.124;8.582;2023-03-23T07:24:06;5.07;;;2.30;;
20828;SDS011;10575;50.124;8.582;2023-03-23T07:26:36;4.55;;;2.78;;
20828;SDS011;10575;50.124;8.582;2023-03-23T07:29:02;4.63;;;2.35;;
20828;SDS011;10575;50.124;8.582;2023-03-23T07:31:27;4.28;;;2.40;;
20828;SDS011;10575;50.124;8.582;2023-03-23T07:33:53;3.58;;;2.50;;
20828;SDS011;10575;50.124;8.582;2023-03-23T07:36:18;4.75;;;2.90;;
20828;SDS011;10575;50.124;8.582;2023-03-23T07:38:45;3.75;;;2.70;;
20828;SDS011;10575;50.124;8.582;2023-03-23T07:41:10;4.97;;;2.83;;
20828;SDS011;10575;50.124;8.582;2023-03-23T07:43:36;4.93;;;3.38;;
20828;SDS011;10575;50.124;8.582;2023-03-23T07:46:02;3.72;;;3.13;;
20828;SDS011;10575;50.124;8.582;2023-03-23T07:48:27;4.97;;;3.30;;
20828;SDS011;10575;50.124;8.582;2023-03-23T07:50:53;3.78;;;2.78;;
20828;SDS011;10575;50.124;8.582;2023-03-23T07:53:18;4.68;;;2.70;;
20828;SDS011;10575;50.124;8.582;2023-03-23T07:55:44;3.83;;;2.88;;
20828;SDS011;10575;50.124;8.582;2023-03-23T07:58:09;4.72;;;3.28;;
20828;SDS011;10575;50.124;8.582;2023-03-23T08:00:35;4.88;;;3.15;;
20828;SDS011;10575;50.124;8.582;2023-03-23T08:03:00;5.53;;;3.45;;
20828;SDS011;10575;50.124;8.582;2023-03-23T08:05:27;7.38;;;3.67;;
20828;SDS011;10575;50.124;8.582;2023-03-23T08:07:53;7.75;;;2.80;;
20828;SDS011;10575;50.124;8.582;2023-03-23T08:10:19;5.88;;;3.95;;
20828;SDS011;10575;50.124;8.582;2023-03-23T08:12:53;5.47;;;2.60;;
20828;SDS011;10575;50.124;8.582;2023-03-23T08:15:20;7.82;;;2.50;;
20828;SDS011;10575;50.124;8.582;2023-03-23T08:17:47;5.20;;;2.80;;
20828;SDS011;10575;50.124;8.582;2023-03-23T08:20:13;4.57;;;2.30;;
20828;SDS011;10575;50.124;8.582;2023-03-23T08:22:39;3.22;;;2.30;;
20828;SDS011;10575;50.124;8.582;2023-03-23T08:25:06;4.00;;;2.35;;
20828;SDS011;10575;50.124;8.582;2023-03-23T08:27:33;5.10;;;2.83;;
20828;SDS011;10575;50.124;8.582;2023-03-23T08:29:59;4.30;;;2.33;;
20828;SDS011;10575;50.124;8.582;2023-03-23T08:32:25;5.50;;;2.88;;
20828;SDS011;10575;50.124;8.582;2023-03-23T08:34:51;3.03;;;2.25;;
20828;SDS011;10575;50.124;8.582;2023-03-23T08:37:17;4.22;;;2.65;;
20828;SDS011;10575;50.124;8.582;2023-03-23T08:39:42;4.07;;;2.45;;
20828;SDS011;10575;50.124;8.582;2023-03-23T08:42:09;3.85;;;2.40;;
20828;SDS011;10575;50.124;8.582;2023-03-23T08:44:35;4.03;;;2.70;;
20828;SDS011;10575;50.124;8.582;2023-03-23T08:47:01;6.70;;;3.67;;
20828;SDS011;10575;50.124;8.582;2023-03-23T08:49:28;6.60;;;3.08;;
20828;SDS011;10575;50.124;8.582;2023-03-23T08:51:56;6.00;;;3.28;;
20828;SDS011;10575;50.124;8.582;2023-03-23T08:54:21;7.03;;;3.00;;
20828;SDS011;10575;50.124;8.582;2023-03-23T08:56:47;5.63;;;4.05;;
20828;SDS011;10575;50.124;8.582;2023-03-23T08:59:12;6.70;;;2.47;;
20828;SDS011;10575;50.124;8.582;2023-03-23T09:01:38;5.55;;;2.83;;
20828;SDS011;10575;50.124;8.582;2023-03-23T09:04:04;3.47;;;2.10;;
20828;SDS011;10575;50.124;8.582;2023-03-23T09:06:30;5.15;;;2.60;;
20828;SDS011;10575;50.124;8.582;2023-03-23T09:08:55;3.97;;;2.20;;
20828;SDS011;10575;50.124;8.582;2023-03-23T09:11:21;4.47;;;3.15;;
20828;SDS011;10575;50.124;8.582;2023-03-23T09:13:47;6.70;;;3.72;;
20828;SDS011;10575;50.124;8.582;2023-03-23T09:16:13;3.95;;;2.63;;
20828;SDS011;10575;50.124;8.582;2023-03-23T09:18:39;4.55;;;3.15;;
20828;SDS011;10575;50.124;8.582;2023-03-23T09:21:05;3.88;;;2.30;;
20828;SDS011;10575;50.124;8.582;2023-03-23T09:23:31;7.15;;;3.05;;
20828;SDS011;10575;50.124;8.582;2023-03-23T09:25:59;5.15;;;2.58;;
20828;SDS011;10575;50.124;8.582;2023-03-23T09:28:26;5.07;;;2.40;;
20828;SDS011;10575;50.124;8.582;2023-03-23T09:30:51;6.50;;;3.40;;
20828;SDS011;10575;50.124;8.582;2023-03-23T09:33:22;4.40;;;2.47;;
20828;SDS011;10575;50.124;8.582;2023-03-23T09:35:48;4.70;;;2.30;;
20828;SDS011;10575;50.124;8.582;2023-03-23T09:38:14;7.15;;;4.43;;
20828;SDS011;10575;50.124;8.582;2023-03-23T09:40:54;7.60;;;3.10;;
20828;SDS011;10575;50.124;8.582;2023-03-23T09:43:44;4.53;;;2.08;;
20828;SDS011;10575;50.124;8.582;2023-03-23T09:49:42;2.13;;;1.70;;
20828;SDS011;10575;50.124;8.582;2023-03-23T09:52:14;2.83;;;1.92;;
20828;SDS011;10575;50.124;8.582;2023-03-23T09:54:48;2.47;;;2.03;;
20828;SDS011;10575;50.124;8.582;2023-03-23T09:57:19;6.97;;;2.38;;
20828;SDS011;10575;50.124;8.582;2023-03-23T10:00:00;2.95;;;2.20;;
20828;SDS011;10575;50.124;8.582;2023-03-23T10:02:41;3.60;;;2.08;;
20828;SDS011;10575;50.124;8.582;2023-03-23T10:05:39;4.72;;;2.55;;
20828;SDS011;10575;50.124;8.582;2023-03-23T10:08:13;3.25;;;2.60;;
20828;SDS011;10575;50.124;8.582;2023-03-23T10:16:25;3.03;;;2.30;;
20828;SDS011;10575;50.124;8.582;2023-03-23T10:18:56;3.25;;;2.30;;
20828;SDS011;10575;50.124;8.582;2023-03-23T10:21:33;4.07;;;2.80;;
20828;SDS011;10575;50.124;8.582;2023-03-23T10:24:04;3.45;;;1.83;;
20828;SDS011;10575;50.124;8.582;2023-03-23T10:26:39;2.00;;;1.50;;
20828;SDS011;10575;50.124;8.582;2023-03-23T10:29:57;2.47;;;1.40;;
20828;SDS011;10575;50.124;8.582;2023-03-23T10:32:09;1.35;;;1.25;;
20828;SDS011;10575;50.124;8.582;2023-03-23T10:34:49;1.95;;;1.35;;
20828;SDS011;10575;50.124;8.582;2023-03-23T10:37:26;1.80;;;1.38;;
20828;SDS011;10575;50.124;8.582;2023-03-23T10:40:01;2.55;;;1.60;;
20828;SDS011;10575;50.124;8.582;2023-03-23T10:42:34;2.58;;;1.60;;
20828;SDS011;10575;50.124;8.582;2023-03-23T10:45:11;2.95;;;1.92;;
20828;SDS011;10575;50.124;8.582;2023-03-23T10:47:44;1.88;;;1.40;;
20828;SDS011;10575;50.124;8.582;2023-03-23T10:50:17;3.90;;;1.60;;
20828;SDS011;10575;50.124;8.582;2023-03-23T10:52:48;2.45;;;1.45;;
20828;SDS011;10575;50.124;8.582;2023-03-23T10:55:17;2.20;;;1.83;;
20828;SDS011;10575;50.124;8.582;2023-03-23T11:00:44;2.88;;;1.58;;
20828;SDS011;10575;50.124;8.582;2023-03-23T11:08:21;4.20;;;2.40;;
20828;SDS011;10575;50.124;8.582;2023-03-23T11:10:54;2.95;;;1.55;;
20828;SDS011;10575;50.124;8.582;2023-03-23T11:13:22;2.22;;;1.65;;
20828;SDS011;10575;50.124;8.582;2023-03-23T11:15:53;3.08;;;1.73;;
20828;SDS011;10575;50.124;8.582;2023-03-23T11:18:25;4.07;;;1.90;;
20828;SDS011;10575;50.124;8.582;2023-03-23T11:21:01;3.22;;;1.90;;
20828;SDS011;10575;50.124;8.582;2023-03-23T11:23:35;4.15;;;2.03;;
20828;SDS011;10575;50.124;8.582;2023-03-23T11:26:15;3.30;;;1.85;;
20828;SDS011;10575;50.124;8.582;2023-03-23T11:28:47;4.60;;;2.00;;
20828;SDS011;10575;50.124;8.582;2023-03-23T11:31:16;2.90;;;2.05;;
20828;SDS011;10575;50.124;8.582;2023-03-23T11:37:00;4.95;;;1.75;;
20828;SDS011;10575;50.124;8.582;2023-03-23T11:42:20;1.75;;;1.30;;
20828;SDS011;10575;50.124;8.582;2023-03-23T11:44:51;2.10;;;1.50;;
20828;SDS011;10575;50.124;8.582;2023-03-23T11:47:28;2.25;;;1.30;;
20828;SDS011;10575;50.124;8.582;2023-03-23T11:50:03;1.30;;;1.20;;
20828;SDS011;10575;50.124;8.582;2023-03-23T11:53:13;2.30;;;1.35;;
20828;SDS011;10575;50.124;8.582;2023-03-23T11:55:51;3.75;;;1.10;;
20828;SDS011;10575;50.124;8.582;2023-03-23T11:58:33;1.75;;;1.10;;
20828;SDS011;10575;50.124;8.582;2023-03-23T12:01:03;1.50;;;1.20;;
20828;SDS011;10575;50.124;8.582;2023-03-23T12:06:11;1.73;;;1.10;;
20828;SDS011;10575;50.124;8.582;2023-03-23T12:08:54;1.60;;;1.30;;
20828;SDS011;10575;50.124;8.582;2023-03-23T12:14:32;2.13;;;1.10;;
20828;SDS011;10575;50.124;8.582;2023-03-23T12:17:19;2.40;;;1.33;;
20828;SDS011;10575;50.124;8.582;2023-03-23T12:22:56;1.55;;;1.25;;
20828;SDS011;10575;50.124;8.582;2023-03-23T12:27:58;2.00;;;1.10;;
20828;SDS011;10575;50.124;8.582;2023-03-23T12:33:40;1.45;;;1.33;;
20828;SDS011;10575;50.124;8.582;2023-03-23T12:44:35;1.35;;;1.02;;
20828;SDS011;10575;50.124;8.582;2023-03-23T12:47:16;2.97;;;1.45;;
20828;SDS011;10575;50.124;8.582;2023-03-23T12:50:01;1.52;;;1.30;;
20828;SDS011;10575;50.124;8.582;2023-03-23T12:52:35;3.83;;;1.10;;
20828;SDS011;10575;50.124;8.582;2023-03-23T12:55:44;2.25;;;1.25;;
20828;SDS011;10575;50.124;8.582;2023-03-23T12:58:25;1.15;;;0.98;;
20828;SDS011;10575;50.124;8.582;2023-03-23T13:00:57;2.95;;;1.52;;
20828;SDS011;10575;50.124;8.582;2023-03-23T13:06:45;1.10;;;1.00;;
20828;SDS011;10575;50.124;8.582;2023-03-23T13:11:31;2.05;;;1.25;;
20828;SDS011;10575;50.124;8.582;2023-03-23T13:14:05;2.03;;;1.40;;
20828;SDS011;10575;50.124;8.582;2023-03-23T13:20:04;4.20;;;1.30;;
20828;SDS011;10575;50.124;8.582;2023-03-23T13:23:36;1.58;;;1.20;;
20828;SDS011;10575;50.124;8.582;2023-03-23T13:28:17;1.50;;;1.20;;
20828;SDS011;10575;50.124;8.582;2023-03-23T13:30:53;2.30;;;1.05;;
20828;SDS011;10575;50.124;8.582;2023-03-23T13:33:20;1.92;;;1.23;;
20828;SDS011;10575;50.124;8.582;2023-03-23T13:35:46;1.63;;;1.30;;
20828;SDS011;10575;50.124;8.582;2023-03-23T13:38:19;3.67;;;1.25;;
20828;SDS011;10575;50.124;8.582;2023-03-23T13:40:51;2.78;;;1.25;;
20828;SDS011;10575;50.124;8.582;2023-03-23T13:43:32;1.10;;;1.00;;
20828;SDS011;10575;50.124;8.582;2023-03-23T13:56:41;1.42;;;1.33;;
20828;SDS011;10575;50.124;8.582;2023-03-23T13:59:16;1.90;;;1.20;;
20828;SDS011;10575;50.124;8.582;2023-03-23T14:01:54;1.67;;;1.20;;
20828;SDS011;10575;50.124;8.582;2023-03-23T14:04:21;2.83;;;1.50;;
20828;SDS011;10575;50.124;8.582;2023-03-23T14:06:55;2.17;;;1.55;;
20828;SDS011;10575;50.124;8.582;2023-03-23T14:09:25;1.75;;;1.40;;
20828;SDS011;10575;50.124;8.582;2023-03-23T14:12:03;1.83;;;1.40;;
20828;SDS011;10575;50.124;8.582;2023-03-23T14:14:44;2.00;;;1.50;;
20828;SDS011;10575;50.124;8.582;2023-03-23T14:17:13;3.25;;;1.50;;
20828;SDS011;10575;50.124;8.582;2023-03-23T14:19:44;1.70;;;1.50;;
20828;SDS011;10575;50.124;8.582;2023-03-23T14:22:23;3.33;;;1.48;;
20828;SDS011;10575;50.124;8.582;2023-03-23T14:24:50;1.40;;;1.00;;
20828;SDS011;10575;50.124;8.582;2023-03-23T14:27:19;2.90;;;1.52;;
20828;SDS011;10575;50.124;8.582;2023-03-23T14:29:57;2.55;;;1.27;;
20828;SDS011;10575;50.124;8.582;2023-03-23T14:32:23;2.17;;;1.33;;
20828;SDS011;10575;50.124;8.582;2023-03-23T14:34:51;3.50;;;1.75;;
20828;SDS011;10575;50.124;8.582;2023-03-23T14:37:17;1.85;;;1.30;;
20828;SDS011;10575;50.124;8.582;2023-03-23T14:39:44;3.28;;;1.70;;
20828;SDS011;10575;50.124;8.582;2023-03-23T14:42:17;3.90;;;1.50;;
20828;SDS011;10575;50.124;8.582;2023-03-23T14:44:47;1.92;;;1.50;;
20828;SDS011;10575;50.124;8.582;2023-03-23T14:47:22;1.52;;;1.40;;
20828;SDS011;10575;50.124;8.582;2023-03-23T14:49:57;1.98;;;1.50;;
20828;SDS011;10575;50.124;8.582;2023-03-23T14:52:26;4.05;;;1.70;;
20828;SDS011;10575;50.124;8.582;2023-03-23T14:55:18;2.03;;;1.40;;
20828;SDS011;10575;50.124;8.582;2023-03-23T14:57:46;2.08;;;1.27;;
20828;SDS011;10575;50.124;8.582;2023-03-23T15:02:47;1.67;;;1.35;;
20828;SDS011;10575;50.124;8.582;2023-03-23T15:05:21;1.58;;;1.17;;
20828;SDS011;10575;50.124;8.582;2023-03-23T15:07:55;4.20;;;1.52;;
20828;SDS011;10575;50.124;8.582;2023-03-23T15:10:26;2.55;;;1.40;;
20828;SDS011;10575;50.124;8.582;2023-03-23T15:12:52;2.40;;;1.50;;
20828;SDS011;10575;50.124;8.582;2023-03-23T15:15:27;2.13;;;1.30;;
20828;SDS011;10575;50.124;8.582;2023-03-23T15:17:55;3.67;;;1.40;;
20828;SDS011;10575;50.124;8.582;2023-03-23T15:22:48;3.17;;;2.00;;
20828;SDS011;10575;50.124;8.582;2023-03-23T15:25:19;2.55;;;1.65;;
20828;SDS011;10575;50.124;8.582;2023-03-23T15:27:51;2.47;;;1.75;;
20828;SDS011;10575;50.124;8.582;2023-03-23T15:32:47;2.65;;;1.35;;
20828;SDS011;10575;50.124;8.582;2023-03-23T15:35:15;2.65;;;1.45;;
20828;SDS011;10575;50.124;8.582;2023-03-23T15:37:44;4.13;;;1.52;;
20828;SDS011;10575;50.124;8.582;2023-03-23T15:40:21;1.67;;;1.52;;
20828;SDS011;10575;50.124;8.582;2023-03-23T15:42:48;2.03;;;1.45;;
20828;SDS011;10575;50.124;8.582;2023-03-23T15:45:23;3.50;;;1.20;;
20828;SDS011;10575;50.124;8.582;2023-03-23T15:47:51;1.80;;;1.30;;
20828;SDS011;10575;50.124;8.582;2023-03-23T15:50:18;1.30;;;1.20;;
20828;SDS011;10575;50.124;8.582;2023-03-23T15:52:58;1.65;;;1.40;;
20828;SDS011;10575;50.124;8.582;2023-03-23T15:55:28;2.40;;;1.20;;
20828;SDS011;10575;50.124;8.582;2023-03-23T15:58:00;1.98;;;1.15;;
20828;SDS011;10575;50.124;8.582;2023-03-23T16:00:34;4.35;;;1.38;;
20828;SDS011;10575;50.124;8.582;2023-03-23T16:03:01;2.17;;;1.15;;
20828;SDS011;10575;50.124;8.582;2023-03-23T16:05:30;6.35;;;1.80;;
20828;SDS011;10575;50.124;8.582;2023-03-23T16:07:56;2.85;;;1.02;;
20828;SDS011;10575;50.124;8.582;2023-03-23T16:10:22;5.18;;;1.15;;
20828;SDS011;10575;50.124;8.582;2023-03-23T16:12:49;2.55;;;1.20;;
20828;SDS011;10575;50.124;8.582;2023-03-23T16:15:15;2.10;;;1.50;;
20828;SDS011;10575;50.124;8.582;2023-03-23T16:17:41;3.65;;;1.17;;
20828;SDS011;10575;50.124;8.582;2023-03-23T16:20:14;2.28;;;1.40;;
20828;SDS011;10575;50.124;8.582;2023-03-23T16:22:41;3.30;;;1.40;;
20828;SDS011;10575;50.124;8.582;2023-03-23T16:25:08;1.92;;;1.60;;
20828;SDS011;10575;50.124;8.582;2023-03-23T16:27:34;2.67;;;1.48;;
20828;SDS011;10575;50.124;8.582;2023-03-23T16:30:00;1.80;;;1.50;;
20828;SDS011;10575;50.124;8.582;2023-03-23T16:32:28;6.28;;;3.83;;
20828;SDS011;10575;50.124;8.582;2023-03-23T16:34:53;4.50;;;3.13;;
20828;SDS011;10575;50.124;8.582;2023-03-23T16:37:19;5.50;;;3.20;;
20828;SDS011;10575;50.124;8.582;2023-03-23T16:39:45;3.90;;;3.00;;
20828;SDS011;10575;50.124;8.582;2023-03-23T16:42:11;14.55;;;9.73;;